createdAt,value
2023-11-27T00:00:37.291Z,10.30
2023-11-27T00:03:07.284Z,10.17
2023-11-27T00:05:33.887Z,9.17
2023-11-27T00:08:00.526Z,11.50
2023-11-27T00:10:27.218Z,11.47
2023-11-27T00:12:56.321Z,12.63
2023-11-27T00:15:24.421Z,12.43
2023-11-27T00:17:51.185Z,10.00
2023-11-27T00:20:17.861Z,11.70
2023-11-27T00:22:44.558Z,10.57
2023-11-27T00:25:11.320Z,12.63
2023-11-27T00:27:37.916Z,10.73
2023-11-27T00:30:07.476Z,11.50
2023-11-27T00:32:34.785Z,12.27
2023-11-27T00:35:01.378Z,12.77
2023-11-27T00:37:28.630Z,14.37
2023-11-27T00:39:55.552Z,15.23
2023-11-27T00:42:22.204Z,15.47
2023-11-27T00:44:48.890Z,14.83
2023-11-27T00:47:16.086Z,15.03
2023-11-27T00:49:42.808Z,14.07
2023-11-27T00:52:09.404Z,14.77
2023-11-27T00:54:36.084Z,16.20
2023-11-27T00:57:02.701Z,13.93
2023-11-27T00:59:29.563Z,11.33
2023-11-27T01:01:56.357Z,13.90
2023-11-27T01:04:23.064Z,11.70
2023-11-27T01:06:53.374Z,10.73
2023-11-27T01:09:22.253Z,14.63
2023-11-27T01:11:48.986Z,13.10
2023-11-27T01:14:16.609Z,12.83
2023-11-27T01:16:43.430Z,12.97
2023-11-27T01:19:10.507Z,11.60
2023-11-27T01:21:37.086Z,16.47
2023-11-27T01:24:06.570Z,15.77
2023-11-27T01:26:34.239Z,12.40
2023-11-27T01:29:00.796Z,14.53
2023-11-27T01:31:27.708Z,9.83
2023-11-27T01:33:54.374Z,12.73
2023-11-27T01:36:21.190Z,14.10
2023-11-27T01:38:48.036Z,14.73
2023-11-27T01:41:15.200Z,14.03
2023-11-27T01:43:42.452Z,14.13
2023-11-27T01:46:12.343Z,14.83
2023-11-27T01:48:39.137Z,17.10
2023-11-27T01:51:06.018Z,15.53
2023-11-27T01:53:33.166Z,12.57
2023-11-27T01:56:00.260Z,14.87
2023-11-27T01:58:27.006Z,18.23
2023-11-27T02:00:53.763Z,14.80
2023-11-27T02:03:21.845Z,14.40
2023-11-27T02:05:48.413Z,16.63
2023-11-27T02:08:15.078Z,18.00
2023-11-27T02:10:41.622Z,12.93
2023-11-27T02:13:08.419Z,14.53
2023-11-27T02:15:35.084Z,14.60
2023-11-27T02:18:01.682Z,14.47
2023-11-27T02:20:28.315Z,16.03
2023-11-27T02:22:55.494Z,15.93
2023-11-27T02:25:22.241Z,12.37
2023-11-27T02:27:49.025Z,16.17
2023-11-27T02:30:15.700Z,15.47
2023-11-27T02:32:42.259Z,12.67
2023-11-27T02:35:09.206Z,16.53
2023-11-27T02:37:35.878Z,16.10
2023-11-27T02:40:02.676Z,14.40
2023-11-27T02:42:29.357Z,16.67
2023-11-27T02:44:56.064Z,19.27
2023-11-27T02:47:22.913Z,15.50
2023-11-27T02:49:50.256Z,19.07
2023-11-27T02:52:17.953Z,15.00
2023-11-27T02:54:44.934Z,15.10
2023-11-27T02:57:12.150Z,16.83
2023-11-27T02:59:38.697Z,15.93
2023-11-27T03:02:05.599Z,18.20
2023-11-27T03:04:32.664Z,17.17
2023-11-27T03:06:59.429Z,15.77
2023-11-27T03:09:26.044Z,17.53
2023-11-27T03:11:52.702Z,20.73
2023-11-27T03:14:19.268Z,19.53
2023-11-27T03:16:46.705Z,18.80
2023-11-27T03:19:13.479Z,20.90
2023-11-27T03:21:40.376Z,20.53
2023-11-27T03:24:07.380Z,24.20
2023-11-27T03:26:34.179Z,23.87
2023-11-27T03:29:01.491Z,19.77
2023-11-27T03:31:28.435Z,21.00
2023-11-27T03:33:55.106Z,20.70
2023-11-27T03:36:21.812Z,19.27
2023-11-27T03:38:48.439Z,23.43
2023-11-27T03:41:22.405Z,24.60
2023-11-27T03:43:49.540Z,23.43
2023-11-27T03:46:16.702Z,23.27
2023-11-27T03:48:43.690Z,26.93
2023-11-27T03:51:10.621Z,25.70
2023-11-27T03:53:37.183Z,22.00
2023-11-27T03:56:03.982Z,24.67
2023-11-27T03:58:30.602Z,22.67
2023-11-27T04:00:58.813Z,23.17
2023-11-27T04:03:25.818Z,21.70
2023-11-27T04:05:52.553Z,26.93
2023-11-27T04:08:19.155Z,31.03
2023-11-27T04:10:45.967Z,26.77
2023-11-27T04:13:12.588Z,26.63
2023-11-27T04:15:39.822Z,26.00
2023-11-27T04:18:06.699Z,23.13
2023-11-27T04:20:33.286Z,25.33
2023-11-27T04:22:59.870Z,22.83
2023-11-27T04:25:26.808Z,24.03
2023-11-27T04:27:53.443Z,25.67
2023-11-27T04:30:20.012Z,26.80
2023-11-27T04:32:46.919Z,25.47
2023-11-27T04:35:14.138Z,27.23
2023-11-27T04:37:41.126Z,24.57
2023-11-27T04:40:12.268Z,25.77
2023-11-27T04:42:39.517Z,28.27
2023-11-27T04:45:08.232Z,25.83
2023-11-27T04:47:35.451Z,25.83
2023-11-27T04:50:02.613Z,28.90
2023-11-27T04:52:30.426Z,25.37
2023-11-27T04:54:57.122Z,28.10
2023-11-27T04:57:25.692Z,26.93
2023-11-27T04:59:52.273Z,24.13
2023-11-27T05:02:18.980Z,24.83
2023-11-27T05:04:46.143Z,27.00
2023-11-27T05:07:12.745Z,31.90
2023-11-27T05:09:42.868Z,28.53
2023-11-27T05:12:17.566Z,26.93
2023-11-27T05:14:50.737Z,26.03
2023-11-27T05:17:17.409Z,23.80
2023-11-27T05:19:44.164Z,29.60
2023-11-27T05:22:10.769Z,31.03
2023-11-27T05:24:37.407Z,30.97
2023-11-27T05:27:04.576Z,31.80
2023-11-27T05:29:31.198Z,31.47
2023-11-27T05:31:57.868Z,31.67
2023-11-27T05:34:25.635Z,28.93
2023-11-27T05:36:52.443Z,28.73
2023-11-27T05:39:19.403Z,31.10
2023-11-27T05:41:50.428Z,32.90
2023-11-27T05:44:19.179Z,35.70
2023-11-27T05:46:46.061Z,31.63
2023-11-27T05:49:12.929Z,31.70
2023-11-27T05:51:41.265Z,33.80
2023-11-27T05:54:08.558Z,35.73
2023-11-27T05:56:35.177Z,39.77
2023-11-27T05:59:01.742Z,36.87
2023-11-27T06:01:28.412Z,42.03
2023-11-27T06:03:55.133Z,39.60
2023-11-27T06:06:23.305Z,37.93
2023-11-27T06:08:51.057Z,47.43
2023-11-27T06:11:18.704Z,38.80
2023-11-27T06:13:45.640Z,31.70
2023-11-27T06:16:13.161Z,35.97
2023-11-27T06:18:40.065Z,36.80
2023-11-27T06:21:07.714Z,36.27
2023-11-27T06:23:34.665Z,36.73
2023-11-27T06:26:02.567Z,37.37
2023-11-27T06:28:29.934Z,36.67
2023-11-27T06:30:56.808Z,38.47
2023-11-27T06:33:24.428Z,36.07
2023-11-27T06:35:52.839Z,37.63
2023-11-27T06:38:20.207Z,39.07
2023-11-27T06:40:48.234Z,42.20
2023-11-27T06:43:16.739Z,37.17
2023-11-27T06:45:43.998Z,35.70
2023-11-27T06:48:10.742Z,40.27
2023-11-27T06:50:37.405Z,39.23
2023-11-27T06:53:04.100Z,35.00
2023-11-27T06:55:31.187Z,31.13
2023-11-27T06:57:57.958Z,35.50
2023-11-27T07:00:25.921Z,32.93
2023-11-27T07:02:52.601Z,32.17
2023-11-27T07:05:19.663Z,30.90
2023-11-27T07:07:46.481Z,33.07
2023-11-27T07:10:15.051Z,32.50
2023-11-27T07:12:42.159Z,34.33
2023-11-27T07:15:13.242Z,33.10
2023-11-27T07:17:40.143Z,29.30
2023-11-27T07:20:07.595Z,32.27
2023-11-27T07:22:34.406Z,29.93
2023-11-27T07:25:01.090Z,31.33
2023-11-27T07:27:30.140Z,30.80
2023-11-27T07:29:56.913Z,31.97
2023-11-27T07:32:24.413Z,31.93
2023-11-27T07:34:51.057Z,26.87
2023-11-27T07:37:17.684Z,34.37
2023-11-27T07:39:45.999Z,31.23
2023-11-27T07:42:15.968Z,32.27
2023-11-27T07:44:44.506Z,26.87
2023-11-27T07:47:11.516Z,26.40
2023-11-27T07:49:38.440Z,28.17
2023-11-27T07:52:05.418Z,28.37
2023-11-27T07:54:32.518Z,35.17
2023-11-27T07:56:59.333Z,32.03
2023-11-27T07:59:29.053Z,27.80
2023-11-27T08:01:57.485Z,30.40
2023-11-27T08:04:25.406Z,29.20
2023-11-27T08:06:52.374Z,30.50
2023-11-27T08:09:18.932Z,29.20
2023-11-27T08:11:45.707Z,22.30
2023-11-27T08:14:14.888Z,26.23
2023-11-27T08:16:41.593Z,27.97
2023-11-27T08:19:11.110Z,27.03
2023-11-27T08:21:37.899Z,26.57
2023-11-27T08:24:05.430Z,29.47
2023-11-27T08:26:40.698Z,25.37
2023-11-27T08:29:09.214Z,27.23
2023-11-27T08:31:37.097Z,28.83
2023-11-27T08:34:07.021Z,29.13
2023-11-27T08:36:36.444Z,32.73
2023-11-27T08:39:05.437Z,34.23
2023-11-27T08:41:32.348Z,30.23
2023-11-27T08:43:59.063Z,36.03
2023-11-27T08:46:25.988Z,32.70
2023-11-27T08:48:52.757Z,28.03
2023-11-27T08:51:22.735Z,30.93
2023-11-27T08:53:49.505Z,31.97
2023-11-27T08:56:19.520Z,31.33
2023-11-27T08:58:49.638Z,34.37
2023-11-27T09:01:18.065Z,30.07
2023-11-27T09:03:46.139Z,32.47
2023-11-27T09:06:12.873Z,32.30
2023-11-27T09:08:40.417Z,32.63
2023-11-27T09:11:12.445Z,29.10
2023-11-27T09:13:39.638Z,30.07
2023-11-27T09:16:06.990Z,27.53
2023-11-27T09:18:33.950Z,27.13
2023-11-27T09:21:00.632Z,26.90
2023-11-27T09:23:27.480Z,29.90
2023-11-27T09:25:54.676Z,31.58
2023-11-27T09:28:21.442Z,25.77
2023-11-27T09:30:48.487Z,25.37
2023-11-27T09:33:15.859Z,25.97
2023-11-27T09:35:42.749Z,27.43
2023-11-27T09:38:09.612Z,25.83
2023-11-27T09:40:43.250Z,24.47
2023-11-27T09:43:10.954Z,27.87
2023-11-27T09:45:38.652Z,24.13
2023-11-27T09:48:12.221Z,24.77
2023-11-27T09:50:43.600Z,29.13
2023-11-27T09:53:10.755Z,28.10
2023-11-27T09:55:42.043Z,40.53
2023-11-27T09:58:14.663Z,37.70
2023-11-27T10:00:44.051Z,39.43
2023-11-27T10:03:11.445Z,29.77
2023-11-27T10:05:38.947Z,31.03
2023-11-27T10:08:10.191Z,29.70
2023-11-27T10:10:37.073Z,30.27
2023-11-27T10:13:14.919Z,25.57
2023-11-27T10:15:50.593Z,31.10
2023-11-27T10:18:21.172Z,28.73
2023-11-27T10:20:51.145Z,30.10
2023-11-27T10:23:18.029Z,31.97
2023-11-27T10:25:46.310Z,33.53
2023-11-27T10:28:16.616Z,32.37
2023-11-27T10:30:46.539Z,31.07
2023-11-27T10:33:13.514Z,33.63
2023-11-27T10:35:43.082Z,39.73
2023-11-27T10:38:17.459Z,37.17
2023-11-27T10:40:45.438Z,35.40
2023-11-27T10:43:12.813Z,38.03
2023-11-27T10:45:41.631Z,33.77
2023-11-27T10:48:12.258Z,35.33
2023-11-27T10:50:41.065Z,33.83
2023-11-27T10:53:09.652Z,36.43
2023-11-27T10:55:38.590Z,40.37
2023-11-27T10:58:07.057Z,36.37
2023-11-27T11:00:48.540Z,41.30
2023-11-27T11:03:17.022Z,39.37
2023-11-27T11:05:51.249Z,40.07
2023-11-27T11:08:29.171Z,39.93
2023-11-27T11:10:57.878Z,42.07
2023-11-27T11:13:29.003Z,42.93
2023-11-27T11:16:20.235Z,42.30
2023-11-27T11:19:09.635Z,42.70
2023-11-27T11:21:42.277Z,40.80
2023-11-27T11:24:35.222Z,42.60
2023-11-27T11:27:24.016Z,35.70
2023-11-27T11:29:52.895Z,40.37
2023-11-27T11:32:21.627Z,39.90
2023-11-27T11:34:52.083Z,36.23
2023-11-27T11:37:22.333Z,39.73
2023-11-27T11:39:50.941Z,41.63
2023-11-27T11:42:21.952Z,36.47
2023-11-27T11:45:26.855Z,39.67
2023-11-27T11:48:08.345Z,39.60
2023-11-27T11:50:44.488Z,32.63
2023-11-27T11:53:24.455Z,37.00
2023-11-27T11:55:52.434Z,30.87
2023-11-27T11:58:19.297Z,31.80
2023-11-27T12:00:54.923Z,30.63
2023-11-27T12:03:24.683Z,34.53
2023-11-27T12:05:55.618Z,33.90
2023-11-27T12:08:27.204Z,35.07
2023-11-27T12:10:55.174Z,34.90
2023-11-27T12:13:36.192Z,32.23
2023-11-27T12:16:15.168Z,33.73
2023-11-27T12:18:51.049Z,42.23
2023-11-27T12:21:25.920Z,37.93
2023-11-27T12:23:54.895Z,32.23
2023-11-27T12:26:25.619Z,34.93
2023-11-27T12:28:53.747Z,29.67
2023-11-27T12:31:22.335Z,30.40
2023-11-27T12:33:49.795Z,34.03
2023-11-27T12:36:22.564Z,31.93
2023-11-27T12:38:54.767Z,33.60
2023-11-27T12:41:33.978Z,33.23
2023-11-27T12:44:17.740Z,30.23
2023-11-27T12:46:52.110Z,36.70
2023-11-27T12:49:29.023Z,33.27
2023-11-27T12:52:02.144Z,35.87
2023-11-27T12:54:29.448Z,37.50
2023-11-27T12:57:03.852Z,33.30
2023-11-27T12:59:30.955Z,35.30
2023-11-27T13:02:01.096Z,33.30
2023-11-27T13:04:32.431Z,32.17
2023-11-27T13:07:01.142Z,33.23
2023-11-27T13:09:27.802Z,34.70
2023-11-27T13:11:55.148Z,30.63
2023-11-27T13:14:24.568Z,34.90
2023-11-27T13:16:54.692Z,31.67
2023-11-27T13:19:26.261Z,37.53
2023-11-27T13:21:56.795Z,36.73
2023-11-27T13:24:31.645Z,37.33
2023-11-27T13:27:06.431Z,30.83
2023-11-27T13:29:33.355Z,33.67
2023-11-27T13:32:02.761Z,30.77
2023-11-27T13:34:36.888Z,31.17
2023-11-27T13:37:11.634Z,31.70
2023-11-27T13:39:42.345Z,30.87
2023-11-27T13:42:16.355Z,34.67
2023-11-27T13:44:46.559Z,35.63
2023-11-27T13:47:18.694Z,36.53
2023-11-27T13:49:49.819Z,41.77
2023-11-27T13:52:18.468Z,39.33
2023-11-27T13:54:50.353Z,36.87
2023-11-27T13:57:28.932Z,36.27
2023-11-27T13:59:59.178Z,35.07
2023-11-27T14:02:29.709Z,31.90
2023-11-27T14:05:07.281Z,36.87
2023-11-27T14:07:43.147Z,32.23
2023-11-27T14:10:24.517Z,36.10
2023-11-27T14:13:02.838Z,40.47
2023-11-27T14:15:40.529Z,40.37
2023-11-27T14:18:22.007Z,37.17
2023-11-27T14:21:09.609Z,37.43
2023-11-27T14:23:42.497Z,37.50
2023-11-27T14:26:09.341Z,38.53
2023-11-27T14:28:49.556Z,36.57
2023-11-27T14:31:19.736Z,42.03
2023-11-27T14:33:51.587Z,41.10
2023-11-27T14:36:18.713Z,42.10
2023-11-27T14:38:47.292Z,41.70
2023-11-27T14:41:14.509Z,40.03
2023-11-27T14:43:43.838Z,38.60
2023-11-27T14:46:16.347Z,38.33
2023-11-27T14:48:44.345Z,43.13
2023-11-27T14:51:15.965Z,43.47
2023-11-27T14:53:57.164Z,41.80
2023-11-27T14:56:27.785Z,40.50
2023-11-27T14:58:56.390Z,37.20
2023-11-27T15:01:27.424Z,34.00
2023-11-27T15:03:55.166Z,38.13
2023-11-27T15:06:26.108Z,30.50
2023-11-27T15:08:53.201Z,26.80
2023-11-27T15:11:19.873Z,24.83
2023-11-27T15:13:46.710Z,26.67
2023-11-27T15:16:18.303Z,24.23
2023-11-27T15:18:47.993Z,28.07
2023-11-27T15:21:17.086Z,27.00
2023-11-27T15:23:44.011Z,29.20
2023-11-27T15:26:11.314Z,28.57
2023-11-27T15:28:37.964Z,34.57
2023-11-27T15:31:05.975Z,33.47
2023-11-27T15:33:35.548Z,39.20
2023-11-27T15:36:09.240Z,36.80
2023-11-27T15:38:36.214Z,33.23
2023-11-27T15:41:05.296Z,36.10
2023-11-27T15:43:32.057Z,35.63
2023-11-27T15:46:03.645Z,41.50
2023-11-27T15:48:32.829Z,46.17
2023-11-27T15:50:59.629Z,42.90
2023-11-27T15:53:30.712Z,45.33
2023-11-27T15:55:58.636Z,48.87
2023-11-27T15:58:26.012Z,48.33
2023-11-27T16:00:54.092Z,47.43
2023-11-27T16:03:22.277Z,45.83
2023-11-27T16:05:51.383Z,50.20
2023-11-27T16:08:18.054Z,49.17
2023-11-27T16:10:49.966Z,52.40
2023-11-27T16:13:19.974Z,47.87
2023-11-27T16:15:48.189Z,48.00
2023-11-27T16:18:18.614Z,52.43
2023-11-27T16:20:47.539Z,51.43
2023-11-27T16:23:14.207Z,46.23
2023-11-27T16:25:41.824Z,49.20
2023-11-27T16:28:12.959Z,47.90
2023-11-27T16:30:39.898Z,46.73
2023-11-27T16:33:08.792Z,54.47
2023-11-27T16:35:36.713Z,52.33
2023-11-27T16:38:03.833Z,52.00
2023-11-27T16:40:31.964Z,63.30
2023-11-27T16:42:58.846Z,58.63
2023-11-27T16:45:27.588Z,59.17
2023-11-27T16:48:01.130Z,59.33
2023-11-27T16:50:31.591Z,57.47
2023-11-27T16:52:59.045Z,61.10
2023-11-27T16:55:31.046Z,69.33
2023-11-27T16:58:09.302Z,59.00
2023-11-27T17:00:38.180Z,66.17
2023-11-27T17:03:08.065Z,49.93
2023-11-27T17:05:35.549Z,55.60
2023-11-27T17:08:04.592Z,56.23
2023-11-27T17:10:32.205Z,58.23
2023-11-27T17:12:59.755Z,58.37
2023-11-27T17:15:27.085Z,55.37
2023-11-27T17:17:54.635Z,60.47
2023-11-27T17:20:27.478Z,58.97
2023-11-27T17:23:04.119Z,54.60
2023-11-27T17:25:37.153Z,59.27
2023-11-27T17:28:06.743Z,59.10
2023-11-27T17:30:38.151Z,59.50
2023-11-27T17:33:05.232Z,66.77
2023-11-27T17:35:37.893Z,63.17
2023-11-27T17:38:07.160Z,66.23
2023-11-27T17:40:34.036Z,68.37
2023-11-27T17:43:01.113Z,66.53
2023-11-27T17:45:33.816Z,65.33
2023-11-27T17:48:01.970Z,62.93
2023-11-27T17:50:30.603Z,66.73
2023-11-27T17:52:57.930Z,69.10
2023-11-27T17:55:29.080Z,64.60
2023-11-27T17:57:57.557Z,64.83
2023-11-27T18:00:25.548Z,66.37
2023-11-27T18:02:54.107Z,68.23
2023-11-27T18:05:25.662Z,69.73
2023-11-27T18:07:58.139Z,70.90
2023-11-27T18:10:26.006Z,73.40
2023-11-27T18:12:56.893Z,78.80
2023-11-27T18:15:24.504Z,76.30
2023-11-27T18:17:52.910Z,75.07
2023-11-27T18:20:23.194Z,75.60
2023-11-27T18:22:51.205Z,79.90
2023-11-27T18:25:25.681Z,82.33
2023-11-27T18:27:56.897Z,80.90
2023-11-27T18:30:25.709Z,81.97
2023-11-27T18:32:52.377Z,82.50
2023-11-27T18:35:20.138Z,82.30
2023-11-27T18:37:49.144Z,79.27
2023-11-27T18:40:18.845Z,73.03
2023-11-27T18:42:49.950Z,80.50
2023-11-27T18:45:20.177Z,87.00
2023-11-27T18:47:47.614Z,79.47
2023-11-27T18:50:14.525Z,69.07
2023-11-27T18:52:43.072Z,75.10
2023-11-27T18:55:10.361Z,72.57
2023-11-27T18:57:38.157Z,76.97
2023-11-27T19:00:06.317Z,75.50
2023-11-27T19:02:33.708Z,77.63
2023-11-27T19:05:00.841Z,77.03
2023-11-27T19:07:27.795Z,83.07
2023-11-27T19:09:56.175Z,78.27
2023-11-27T19:12:24.367Z,84.00
2023-11-27T19:14:54.055Z,74.17
2023-11-27T19:17:21.829Z,74.97
2023-11-27T19:19:50.378Z,77.77
2023-11-27T19:22:18.077Z,73.67
2023-11-27T19:24:47.895Z,72.87
2023-11-27T19:27:14.718Z,76.30
2023-11-27T19:29:41.427Z,77.13
2023-11-27T19:32:08.581Z,76.50
2023-11-27T19:34:35.637Z,75.67
2023-11-27T19:37:04.880Z,78.07
2023-11-27T19:39:31.940Z,72.10
2023-11-27T19:41:59.847Z,75.70
2023-11-27T19:44:27.655Z,76.17
2023-11-27T19:46:57.555Z,80.73
2023-11-27T19:49:27.260Z,76.47
2023-11-27T19:51:55.090Z,82.63
2023-11-27T19:54:25.859Z,77.17
2023-11-27T19:56:53.331Z,77.77
2023-11-27T19:59:22.115Z,78.00
2023-11-27T20:01:50.363Z,71.20
2023-11-27T20:04:17.443Z,70.33
2023-11-27T20:06:44.332Z,74.77
2023-11-27T20:09:16.585Z,76.63
2023-11-27T20:11:43.720Z,88.07
2023-11-27T20:14:10.790Z,77.93
2023-11-27T20:16:38.474Z,83.53
2023-11-27T20:19:06.776Z,92.87
2023-11-27T20:21:34.330Z,94.93
2023-11-27T20:24:01.663Z,86.70
2023-11-27T20:26:29.675Z,91.37
2023-11-27T20:28:59.399Z,90.13
2023-11-27T20:31:33.807Z,94.27
2023-11-27T20:34:04.765Z,82.33
2023-11-27T20:36:33.820Z,94.00
2023-11-27T20:39:01.204Z,90.97
2023-11-27T20:41:28.302Z,97.53
2023-11-27T20:43:58.549Z,84.27
2023-11-27T20:46:28.691Z,88.03
2023-11-27T20:48:59.814Z,87.83
2023-11-27T20:51:30.044Z,93.20
2023-11-27T20:53:57.936Z,90.07
2023-11-27T20:56:27.286Z,97.47
2023-11-27T20:58:54.188Z,84.37
2023-11-27T21:01:25.955Z,88.03
2023-11-27T21:03:54.060Z,80.50
2023-11-27T21:06:28.287Z,94.90
2023-11-27T21:08:56.003Z,92.73
2023-11-27T21:11:25.613Z,88.13
2023-11-27T21:13:53.717Z,88.90
2023-11-27T21:16:21.689Z,93.73
2023-11-27T21:18:49.511Z,84.37
2023-11-27T21:21:16.349Z,86.53
2023-11-27T21:23:43.477Z,90.83
2023-11-27T21:26:13.160Z,89.77
2023-11-27T21:28:42.582Z,86.93
2023-11-27T21:31:10.466Z,93.53
2023-11-27T21:33:37.869Z,86.33
2023-11-27T21:36:04.746Z,89.47
2023-11-27T21:38:31.836Z,87.20
2023-11-27T21:40:58.962Z,91.80
2023-11-27T21:43:25.908Z,90.73
2023-11-27T21:45:54.331Z,101.43
2023-11-27T21:48:21.047Z,90.93
2023-11-27T21:50:47.788Z,87.93
2023-11-27T21:53:14.567Z,86.63
2023-11-27T21:55:41.420Z,94.43
2023-11-27T21:58:08.328Z,92.73
2023-11-27T22:00:35.314Z,87.30
2023-11-27T22:03:02.125Z,83.80
2023-11-27T22:05:29.203Z,85.47
2023-11-27T22:07:56.320Z,82.43
2023-11-27T22:10:24.359Z,81.97
2023-11-27T22:12:50.999Z,93.03
2023-11-27T22:15:17.743Z,87.07
2023-11-27T22:17:44.891Z,90.93
2023-11-27T22:20:12.963Z,76.87
2023-11-27T22:22:41.640Z,83.70
2023-11-27T22:25:09.149Z,83.47
2023-11-27T22:27:37.094Z,79.70
2023-11-27T22:30:06.384Z,81.57
2023-11-27T22:32:33.188Z,78.33
2023-11-27T22:34:59.853Z,79.33
2023-11-27T22:37:26.567Z,83.07
2023-11-27T22:39:53.195Z,81.37
2023-11-27T22:42:19.962Z,92.93
2023-11-27T22:44:47.363Z,82.73
2023-11-27T22:47:14.464Z,82.17
2023-11-27T22:49:41.047Z,86.03
2023-11-27T22:52:08.091Z,91.70
2023-11-27T22:54:34.713Z,96.73
2023-11-27T22:57:01.435Z,85.37
2023-11-27T22:59:28.195Z,79.83
2023-11-27T23:01:55.090Z,83.43
2023-11-27T23:04:22.203Z,79.47
2023-11-27T23:06:49.087Z,89.20
2023-11-27T23:09:15.869Z,88.03
2023-11-27T23:11:48.988Z,82.37
2023-11-27T23:14:16.144Z,84.50
2023-11-27T23:16:43.433Z,84.67
2023-11-27T23:19:10.578Z,80.37
2023-11-27T23:21:38.653Z,78.87
2023-11-27T23:24:13.900Z,75.13
2023-11-27T23:26:44.421Z,78.97
2023-11-27T23:29:11.462Z,74.40
2023-11-27T23:31:38.041Z,77.93
2023-11-27T23:34:05.354Z,83.87
2023-11-27T23:36:32.371Z,73.57
2023-11-27T23:38:59.054Z,70.93
2023-11-27T23:41:25.752Z,79.03
2023-11-27T23:43:54.323Z,77.10
2023-11-27T23:46:22.113Z,65.93
2023-11-27T23:48:52.376Z,78.53
2023-11-27T23:51:20.747Z,74.87
2023-11-27T23:53:50.182Z,77.53
2023-11-27T23:56:16.744Z,75.83
2023-11-27T23:58:43.871Z,76.00
